Time;durP1;ratioP1;P1;durP2;ratioP2;P2;SDS_P1;SDS_P2;PMS_P1;PMS_P2;Temp;Humidity;BMP_temperature;BMP_pressure;BME280_temperature;BME280_humidity;BME280_pressure;Samples;Min_cycle;Max_cycle;Signal;HPM_P1;HPM_P2
2022/01/13 00:01:32;;;;;;;;;28.00;22.75;;;;;;;;5058899;28;45337;-70
2022/01/13 00:03:57;;;;;;;;;32.50;26.25;;;;;;;;5059746;28;45324;-71
2022/01/13 00:06:23;;;;;;;;;27.25;23.75;;;;;;;;5063791;28;45262;-70
2022/01/13 00:08:48;;;;;;;;;29.50;24.25;;;;;;;;5064187;28;46068;-70
2022/01/13 00:11:14;;;;;;;;;25.25;22.25;;;;;;;;5052436;28;45776;-70
2022/01/13 00:13:50;;;;;;;;;26.75;22.75;;;;;;;;5075658;27;45502;-71
2022/01/13 00:18:51;;;;;;;;;28.75;21.00;;;;;;;;5074062;27;46266;-70
2022/01/13 00:21:31;;;;;;;;;23.75;19.25;;;;;;;;5073775;28;45296;-70
2022/01/13 00:24:00;;;;;;;;;35.25;27.50;;;;;;;;5073563;28;45536;-70
2022/01/13 00:26:27;;;;;;;;;28.00;24.25;;;;;;;;5073772;28;45394;-69
2022/01/13 00:28:53;;;;;;;;;26.50;20.25;;;;;;;;5073870;27;47142;-70
2022/01/13 00:31:24;;;;;;;;;27.25;25.00;;;;;;;;5073686;28;45747;-70
2022/01/13 00:33:54;;;;;;;;;22.75;20.00;;;;;;;;5075504;27;45640;-70
2022/01/13 00:36:19;;;;;;;;;26.50;22.50;;;;;;;;5073681;27;45378;-70
2022/01/13 00:38:45;;;;;;;;;27.25;22.25;;;;;;;;5073287;28;45440;-69
2022/01/13 00:41:10;;;;;;;;;21.50;19.00;;;;;;;;5073688;27;45170;-69
2022/01/13 00:43:39;;;;;;;;;23.50;19.00;;;;;;;;5072115;27;45545;-70
2022/01/13 00:46:05;;;;;;;;;22.75;22.00;;;;;;;;5075316;28;45296;-70
2022/01/13 00:48:30;;;;;;;;;24.50;21.75;;;;;;;;5072021;28;47237;-70
2022/01/13 00:50:55;;;;;;;;;18.75;15.50;;;;;;;;5073480;28;45334;-70
2022/01/13 00:53:20;;;;;;;;;24.50;20.00;;;;;;;;5073488;28;45293;-70
2022/01/13 00:58:11;;;;;;;;;22.50;19.00;;;;;;;;5074325;27;46065;-69
2022/01/13 01:00:36;;;;;;;;;22.75;18.50;;;;;;;;5074244;28;45232;-70
2022/01/13 01:03:02;;;;;;;;;21.00;18.25;;;;;;;;5072859;28;45360;-70
2022/01/13 01:05:27;;;;;;;;;16.00;13.50;;;;;;;;5072828;28;45561;-70
2022/01/13 01:07:52;;;;;;;;;25.50;22.50;;;;;;;;5073311;28;46382;-69
2022/01/13 01:10:19;;;;;;;;;19.50;16.75;;;;;;;;5073178;27;45294;-70
2022/01/13 01:12:44;;;;;;;;;22.75;18.75;;;;;;;;5057133;28;45315;-70
2022/01/13 01:15:11;;;;;;;;;24.00;20.00;;;;;;;;5073561;28;45466;-69
2022/01/13 01:17:43;;;;;;;;;17.00;15.75;;;;;;;;5072736;28;46191;-70
2022/01/13 01:20:08;;;;;;;;;22.75;19.75;;;;;;;;5076036;27;45438;-70
2022/01/13 01:22:41;;;;;;;;;22.50;19.50;;;;;;;;5075346;27;45369;-70
2022/01/13 01:25:32;;;;;;;;;30.50;21.50;;;;;;;;5078139;27;45453;-69
2022/01/13 01:27:55;;;;;;;;;20.25;15.75;;;;;;;;5077088;27;45452;-69
2022/01/13 01:32:54;;;;;;;;;18.50;16.25;;;;;;;;5076107;27;45299;-69
2022/01/13 01:35:24;;;;;;;;;17.50;16.25;;;;;;;;5076546;27;45264;-70
2022/01/13 01:37:49;;;;;;;;;22.00;20.00;;;;;;;;5076449;27;46534;-70
2022/01/13 01:40:14;;;;;;;;;17.50;17.50;;;;;;;;5077027;27;45458;-70
2022/01/13 01:42:39;;;;;;;;;21.50;19.00;;;;;;;;5077776;28;45356;-70
2022/01/13 01:45:06;;;;;;;;;27.75;21.50;;;;;;;;5076812;27;45667;-70
2022/01/13 01:47:32;;;;;;;;;24.00;21.75;;;;;;;;5075731;27;46533;-70
2022/01/13 01:49:58;;;;;;;;;21.50;19.75;;;;;;;;5056611;28;45825;-70
2022/01/13 01:52:25;;;;;;;;;21.25;16.00;;;;;;;;5076262;27;45245;-70
2022/01/13 01:54:50;;;;;;;;;19.00;16.75;;;;;;;;5078084;27;45356;-70
2022/01/13 01:57:17;;;;;;;;;22.75;19.25;;;;;;;;5075964;28;46065;-69
2022/01/13 01:59:43;;;;;;;;;24.00;16.25;;;;;;;;5076104;28;45512;-70
2022/01/13 02:02:10;;;;;;;;;15.25;15.25;;;;;;;;5074099;27;45431;-70
2022/01/13 02:04:36;;;;;;;;;18.75;16.50;;;;;;;;5074724;27;45494;-70
2022/01/13 02:07:07;;;;;;;;;20.00;15.00;;;;;;;;5077690;27;46232;-70
2022/01/13 02:09:36;;;;;;;;;18.50;13.00;;;;;;;;5077374;28;45366;-70
2022/01/13 02:12:06;;;;;;;;;18.75;16.75;;;;;;;;5076037;28;45568;-70
2022/01/13 02:14:35;;;;;;;;;15.75;13.75;;;;;;;;5075723;27;45766;-70
2022/01/13 02:17:05;;;;;;;;;18.00;15.25;;;;;;;;5076051;28;46062;-70
2022/01/13 02:19:32;;;;;;;;;20.25;16.50;;;;;;;;5060205;28;45618;-70
2022/01/13 02:21:57;;;;;;;;;16.00;15.00;;;;;;;;5073378;28;45433;-70
2022/01/13 02:24:22;;;;;;;;;14.00;13.75;;;;;;;;5075955;27;45297;-70
2022/01/13 02:26:48;;;;;;;;;17.75;15.50;;;;;;;;5075312;28;47343;-70
2022/01/13 02:29:13;;;;;;;;;15.00;15.00;;;;;;;;5075344;28;45478;-70
2022/01/13 02:31:38;;;;;;;;;20.00;15.75;;;;;;;;5075421;27;45498;-70
2022/01/13 02:34:03;;;;;;;;;16.50;13.75;;;;;;;;5077131;27;45441;-70
2022/01/13 02:36:30;;;;;;;;;16.75;12.50;;;;;;;;5076014;28;46001;-70
2022/01/13 02:38:56;;;;;;;;;12.50;12.00;;;;;;;;5075606;27;45483;-70
2022/01/13 02:41:25;;;;;;;;;15.75;14.50;;;;;;;;5073797;27;45487;-70
2022/01/13 02:43:55;;;;;;;;;20.00;16.75;;;;;;;;5073692;28;45540;-70
2022/01/13 02:48:57;;;;;;;;;16.25;13.75;;;;;;;;5072574;28;45437;-70
2022/01/13 02:51:22;;;;;;;;;12.25;12.00;;;;;;;;5075092;28;45453;-70
2022/01/13 02:53:47;;;;;;;;;13.50;12.50;;;;;;;;5075111;27;45476;-70
2022/01/13 02:56:13;;;;;;;;;13.50;10.00;;;;;;;;5074703;27;45502;-70
2022/01/13 02:58:38;;;;;;;;;17.25;12.25;;;;;;;;5074666;27;45351;-70
2022/01/13 03:01:05;;;;;;;;;14.50;11.25;;;;;;;;5076535;27;45298;-70
2022/01/13 03:03:31;;;;;;;;;16.00;12.75;;;;;;;;5073886;27;45233;-69
2022/01/13 03:05:57;;;;;;;;;15.00;12.75;;;;;;;;5074553;27;47154;-69
2022/01/13 03:08:22;;;;;;;;;16.75;14.50;;;;;;;;5074366;28;45317;-69
2022/01/13 03:10:47;;;;;;;;;15.00;14.00;;;;;;;;5074826;27;45380;-69
2022/01/13 03:13:13;;;;;;;;;17.50;14.00;;;;;;;;5075175;28;45335;-68
2022/01/13 03:15:38;;;;;;;;;13.00;10.75;;;;;;;;5076131;28;46401;-69
2022/01/13 03:18:03;;;;;;;;;14.00;12.75;;;;;;;;5074567;28;45489;-71
2022/01/13 03:20:29;;;;;;;;;18.50;14.75;;;;;;;;5072993;28;45488;-70
2022/01/13 03:22:54;;;;;;;;;13.00;12.25;;;;;;;;5073298;27;45331;-69
2022/01/13 03:25:23;;;;;;;;;13.25;11.00;;;;;;;;5056549;28;46229;-70
2022/01/13 03:27:56;;;;;;;;;19.75;12.75;;;;;;;;5076101;28;45336;-69
2022/01/13 03:30:21;;;;;;;;;13.25;12.50;;;;;;;;5074721;28;45272;-69
2022/01/13 03:32:46;;;;;;;;;13.25;13.25;;;;;;;;5054666;28;45358;-69
2022/01/13 03:35:12;;;;;;;;;15.25;14.25;;;;;;;;5074388;27;47140;-69
2022/01/13 03:37:37;;;;;;;;;13.50;13.50;;;;;;;;5074758;27;45338;-70
2022/01/13 03:40:03;;;;;;;;;14.00;12.00;;;;;;;;5076181;28;45312;-69
2022/01/13 03:42:28;;;;;;;;;13.75;12.00;;;;;;;;5073106;27;45375;-69
2022/01/13 03:44:54;;;;;;;;;13.75;11.50;;;;;;;;5073846;28;47044;-69
2022/01/13 03:47:20;;;;;;;;;16.25;13.25;;;;;;;;5074393;28;45490;-69
2022/01/13 03:49:45;;;;;;;;;14.25;11.25;;;;;;;;5074677;27;45469;-69
2022/01/13 03:52:22;;;;;;;;;16.00;13.75;;;;;;;;5075430;27;45392;-69
2022/01/13 03:54:50;;;;;;;;;14.25;13.00;;;;;;;;5074927;27;46406;-69
2022/01/13 03:57:18;;;;;;;;;11.50;9.75;;;;;;;;5073757;28;45643;-69
2022/01/13 03:59:45;;;;;;;;;15.00;14.00;;;;;;;;5072423;27;45509;-69
2022/01/13 04:02:11;;;;;;;;;14.00;12.75;;;;;;;;5072672;27;45505;-69
2022/01/13 04:04:41;;;;;;;;;8.75;8.75;;;;;;;;5074148;27;46261;-69
2022/01/13 04:07:26;;;;;;;;;14.00;11.50;;;;;;;;5075874;27;45370;-69
2022/01/13 04:09:54;;;;;;;;;16.25;14.25;;;;;;;;5075360;27;45573;-70
2022/01/13 04:12:21;;;;;;;;;14.50;11.50;;;;;;;;5073900;28;45474;-70
2022/01/13 04:14:50;;;;;;;;;16.25;14.25;;;;;;;;5073653;27;46212;-70
2022/01/13 04:17:17;;;;;;;;;13.00;12.25;;;;;;;;5073302;28;45370;-70
2022/01/13 04:19:42;;;;;;;;;15.25;11.75;;;;;;;;5073869;27;45324;-70
2022/01/13 04:22:08;;;;;;;;;13.50;12.50;;;;;;;;5075252;28;45300;-70
2022/01/13 04:24:35;;;;;;;;;14.00;11.75;;;;;;;;5074165;28;48406;-70
2022/01/13 04:27:00;;;;;;;;;22.50;15.00;;;;;;;;5073552;27;45495;-70
2022/01/13 04:29:41;;;;;;;;;16.00;14.00;;;;;;;;5073836;27;45309;-70
2022/01/13 04:32:07;;;;;;;;;13.75;9.00;;;;;;;;5073387;28;45339;-69
2022/01/13 04:34:34;;;;;;;;;13.50;11.25;;;;;;;;5073917;27;45175;-70
2022/01/13 04:36:59;;;;;;;;;11.50;10.75;;;;;;;;5075836;28;45387;-70
2022/01/13 04:39:26;;;;;;;;;9.75;8.75;;;;;;;;5071809;27;45502;-70
2022/01/13 04:41:53;;;;;;;;;15.75;12.75;;;;;;;;5071990;28;45301;-70
2022/01/13 04:44:19;;;;;;;;;13.25;10.75;;;;;;;;5073043;27;47342;-70
2022/01/13 04:46:45;;;;;;;;;16.75;11.00;;;;;;;;5073552;27;45509;-70
2022/01/13 04:49:10;;;;;;;;;12.25;11.00;;;;;;;;5074618;28;45439;-70
2022/01/13 04:51:36;;;;;;;;;13.00;12.75;;;;;;;;5073806;28;45401;-70
2022/01/13 04:54:02;;;;;;;;;15.25;10.75;;;;;;;;5052416;27;47414;-70
2022/01/13 04:59:11;;;;;;;;;11.25;10.25;;;;;;;;5073135;28;45391;-69
2022/01/13 05:01:37;;;;;;;;;12.50;12.00;;;;;;;;5072961;27;45628;-70
2022/01/13 05:04:02;;;;;;;;;13.50;13.25;;;;;;;;5074261;28;45203;-70
2022/01/13 05:06:28;;;;;;;;;11.25;9.50;;;;;;;;5073157;28;45276;-70
2022/01/13 05:08:53;;;;;;;;;15.00;14.00;;;;;;;;5072667;28;45477;-70
2022/01/13 05:11:19;;;;;;;;;13.25;10.00;;;;;;;;5072652;28;45260;-70
2022/01/13 05:13:45;;;;;;;;;17.25;13.50;;;;;;;;5072986;28;46372;-70
2022/01/13 05:16:21;;;;;;;;;15.25;12.00;;;;;;;;5072773;28;45296;-70
2022/01/13 05:21:24;;;;;;;;;16.75;13.00;;;;;;;;5071241;27;45386;-70
2022/01/13 05:23:52;;;;;;;;;10.25;9.00;;;;;;;;5072511;28;46770;-70
2022/01/13 05:26:17;;;;;;;;;19.25;14.25;;;;;;;;5072578;28;45426;-70
2022/01/13 05:28:42;;;;;;;;;9.50;6.75;;;;;;;;5072846;27;45396;-69
2022/01/13 05:31:07;;;;;;;;;18.50;16.25;;;;;;;;5074367;28;45404;-70
2022/01/13 05:33:33;;;;;;;;;12.75;10.25;;;;;;;;5072945;28;46220;-70
2022/01/13 05:36:00;;;;;;;;;11.50;9.75;;;;;;;;5072232;27;45353;-70
2022/01/13 05:38:25;;;;;;;;;13.50;12.50;;;;;;;;5072353;28;45749;-70
2022/01/13 05:40:50;;;;;;;;;16.00;11.00;;;;;;;;5072051;28;45395;-69
2022/01/13 05:43:16;;;;;;;;;14.00;10.00;;;;;;;;5053839;28;48083;-70
2022/01/13 05:45:41;;;;;;;;;18.50;13.25;;;;;;;;5073987;28;45298;-70
2022/01/13 05:48:06;;;;;;;;;15.25;12.75;;;;;;;;5071704;28;45536;-70
2022/01/13 05:50:32;;;;;;;;;25.50;17.00;;;;;;;;5051652;28;45456;-70
2022/01/13 05:52:58;;;;;;;;;14.00;12.25;;;;;;;;5071428;27;46005;-70
2022/01/13 05:55:23;;;;;;;;;11.50;9.25;;;;;;;;5071914;27;45352;-70
2022/01/13 05:57:48;;;;;;;;;17.50;16.00;;;;;;;;5072674;28;45344;-70
2022/01/13 06:00:15;;;;;;;;;19.25;18.50;;;;;;;;5070207;27;45515;-70
2022/01/13 06:02:40;;;;;;;;;12.50;12.50;;;;;;;;5071312;28;46729;-70
2022/01/13 06:05:06;;;;;;;;;12.75;12.75;;;;;;;;5071237;28;45528;-70
2022/01/13 06:07:32;;;;;;;;;16.25;15.00;;;;;;;;5056293;28;45395;-70
2022/01/13 06:09:57;;;;;;;;;21.25;15.00;;;;;;;;5077060;27;45252;-70
2022/01/13 06:12:32;;;;;;;;;14.75;12.00;;;;;;;;5075085;27;46118;-70
2022/01/13 06:14:58;;;;;;;;;18.00;15.00;;;;;;;;5074561;28;45299;-69
2022/01/13 06:17:23;;;;;;;;;19.25;15.50;;;;;;;;5074611;27;45257;-69
2022/01/13 06:19:48;;;;;;;;;18.75;17.75;;;;;;;;5074893;27;45391;-69
2022/01/13 06:22:13;;;;;;;;;15.25;13.25;;;;;;;;5073921;27;46315;-69
2022/01/13 06:24:39;;;;;;;;;12.50;12.50;;;;;;;;5076191;27;45505;-70
2022/01/13 06:27:04;;;;;;;;;13.00;13.00;;;;;;;;5074556;27;45269;-70
2022/01/13 06:29:29;;;;;;;;;10.75;8.50;;;;;;;;5074273;27;45460;-70
2022/01/13 06:31:56;;;;;;;;;14.50;9.75;;;;;;;;5073764;27;46030;-70
2022/01/13 06:34:21;;;;;;;;;10.00;10.00;;;;;;;;5074237;27;45635;-69
2022/01/13 06:36:46;;;;;;;;;15.75;13.75;;;;;;;;5074066;28;45394;-70
2022/01/13 06:39:11;;;;;;;;;15.75;14.75;;;;;;;;5071884;27;45452;-70
2022/01/13 06:41:39;;;;;;;;;13.50;10.75;;;;;;;;5073094;27;47016;-70
2022/01/13 06:44:05;;;;;;;;;19.25;14.00;;;;;;;;5073628;27;45395;-69
2022/01/13 06:46:30;;;;;;;;;19.50;15.75;;;;;;;;5058004;28;45329;-69
2022/01/13 06:48:55;;;;;;;;;14.75;12.00;;;;;;;;5075466;27;45343;-70
2022/01/13 06:51:21;;;;;;;;;18.25;12.00;;;;;;;;5072327;27;45410;-71
2022/01/13 06:53:46;;;;;;;;;13.75;13.75;;;;;;;;5073570;27;45455;-70
2022/01/13 06:56:11;;;;;;;;;14.25;13.50;;;;;;;;5074297;27;46114;-71
2022/01/13 06:58:36;;;;;;;;;18.50;15.00;;;;;;;;5074017;27;45370;-70
2022/01/13 07:01:01;;;;;;;;;20.50;16.50;;;;;;;;5074564;27;46193;-70
2022/01/13 07:03:27;;;;;;;;;15.25;13.25;;;;;;;;5071954;28;45832;-70
2022/01/13 07:05:52;;;;;;;;;21.50;18.50;;;;;;;;5072807;27;45477;-69
2022/01/13 07:08:17;;;;;;;;;19.25;15.25;;;;;;;;5055899;28;45588;-70
2022/01/13 07:10:45;;;;;;;;;8.50;8.50;;;;;;;;5073182;27;46036;-69
2022/01/13 07:13:10;;;;;;;;;11.50;11.50;;;;;;;;5073196;27;45230;-69
2022/01/13 07:15:35;;;;;;;;;14.50;11.75;;;;;;;;5072811;27;45295;-70
2022/01/13 07:18:01;;;;;;;;;14.50;14.00;;;;;;;;5071055;27;45341;-71
2022/01/13 07:20:27;;;;;;;;;6.00;4.00;;;;;;;;5072521;28;45407;-70
2022/01/13 07:22:52;;;;;;;;;22.50;15.00;;;;;;;;5055139;28;45532;-67
2022/01/13 07:25:20;;;;;;;;;16.00;12.00;;;;;;;;5072467;27;45356;-71
2022/01/13 07:27:45;;;;;;;;;15.50;9.50;;;;;;;;5074652;27;45319;-71
2022/01/13 07:30:11;;;;;;;;;18.00;14.50;;;;;;;;5072555;27;46540;-72
2022/01/13 07:32:37;;;;;;;;;16.25;14.00;;;;;;;;5073272;27;45667;-71
2022/01/13 07:35:03;;;;;;;;;28.50;24.25;;;;;;;;5073060;27;45385;-71
2022/01/13 07:37:28;;;;;;;;;17.25;16.00;;;;;;;;5072975;27;45545;-71
2022/01/13 07:39:54;;;;;;;;;17.00;16.75;;;;;;;;5073757;27;46359;-70
2022/01/13 07:42:19;;;;;;;;;22.75;18.75;;;;;;;;5071475;28;45285;-68
2022/01/13 07:44:44;;;;;;;;;21.25;19.75;;;;;;;;5072231;28;45193;-66
2022/01/13 07:47:09;;;;;;;;;26.50;21.50;;;;;;;;5072263;28;45435;-68
2022/01/13 07:49:35;;;;;;;;;13.50;12.50;;;;;;;;5072176;28;46429;-67
2022/01/13 07:52:01;;;;;;;;;15.75;14.25;;;;;;;;5074097;27;45364;-68
2022/01/13 07:54:29;;;;;;;;;17.25;15.25;;;;;;;;5070711;28;45495;-68
2022/01/13 07:56:54;;;;;;;;;14.00;9.75;;;;;;;;5070414;27;45464;-68
2022/01/13 07:59:20;;;;;;;;;22.75;15.75;;;;;;;;5071882;27;45487;-69
2022/01/13 08:01:45;;;;;;;;;17.75;17.00;;;;;;;;5071759;28;45505;-69
2022/01/13 08:04:10;;;;;;;;;15.75;14.25;;;;;;;;5072394;27;45449;-69
2022/01/13 08:06:36;;;;;;;;;15.25;14.00;;;;;;;;5073129;27;45501;-69
2022/01/13 08:09:01;;;;;;;;;15.25;15.00;;;;;;;;5072172;27;45401;-69
2022/01/13 08:11:26;;;;;;;;;13.25;11.25;;;;;;;;5071252;27;45428;-69
2022/01/13 08:13:51;;;;;;;;;17.25;16.00;;;;;;;;5072134;28;45498;-69
2022/01/13 08:16:18;;;;;;;;;18.75;15.00;;;;;;;;5071851;27;45275;-69
2022/01/13 08:21:27;;;;;;;;;25.00;20.75;;;;;;;;5056922;28;45553;-70
2022/01/13 08:23:53;;;;;;;;;19.00;16.75;;;;;;;;5071018;28;45369;-70
2022/01/13 08:26:18;;;;;;;;;17.25;12.00;;;;;;;;5071525;27;45250;-70
2022/01/13 08:28:44;;;;;;;;;14.25;13.50;;;;;;;;5070582;27;46225;-72
2022/01/13 08:31:09;;;;;;;;;18.50;13.25;;;;;;;;5072360;27;45349;-70
2022/01/13 08:33:34;;;;;;;;;20.00;15.00;;;;;;;;5070973;27;45515;-71
2022/01/13 08:36:00;;;;;;;;;15.75;13.75;;;;;;;;5069942;27;45554;-71
2022/01/13 08:38:25;;;;;;;;;16.25;14.50;;;;;;;;5071280;28;46542;-71
2022/01/13 08:40:53;;;;;;;;;16.75;15.75;;;;;;;;5070805;28;45272;-71
2022/01/13 08:43:19;;;;;;;;;15.50;12.50;;;;;;;;5071821;27;45354;-70
2022/01/13 08:45:44;;;;;;;;;18.50;13.25;;;;;;;;5073306;27;45362;-71
2022/01/13 08:48:09;;;;;;;;;18.00;15.75;;;;;;;;5071092;28;46026;-71
2022/01/13 08:50:35;;;;;;;;;24.75;18.50;;;;;;;;5071861;28;45593;-69
2022/01/13 08:53:00;;;;;;;;;17.75;15.00;;;;;;;;5071089;28;45670;-71
2022/01/13 08:55:26;;;;;;;;;14.50;12.75;;;;;;;;5071557;27;45268;-71
2022/01/13 08:57:52;;;;;;;;;27.75;22.00;;;;;;;;5073328;27;45435;-72
2022/01/13 09:00:17;;;;;;;;;23.00;19.50;;;;;;;;5072519;27;45571;-72
2022/01/13 09:02:43;;;;;;;;;19.50;14.50;;;;;;;;5072248;27;45272;-69
2022/01/13 09:05:08;;;;;;;;;17.50;17.50;;;;;;;;5072453;27;45421;-70
2022/01/13 09:07:34;;;;;;;;;20.25;17.50;;;;;;;;5071818;27;46397;-69
2022/01/13 09:09:59;;;;;;;;;18.50;17.00;;;;;;;;5073848;27;45454;-69
2022/01/13 09:12:24;;;;;;;;;41.00;33.00;;;;;;;;5068828;27;45237;-69
2022/01/13 09:14:51;;;;;;;;;21.25;14.25;;;;;;;;5068157;28;45372;-68
2022/01/13 09:17:22;;;;;;;;;22.00;17.50;;;;;;;;5071126;27;47009;-70
2022/01/13 09:19:47;;;;;;;;;15.25;9.25;;;;;;;;5071345;28;45575;-69
2022/01/13 09:22:13;;;;;;;;;26.50;20.75;;;;;;;;5071937;28;45488;-70
2022/01/13 09:24:38;;;;;;;;;18.25;15.75;;;;;;;;5071992;27;45362;-70
2022/01/13 09:27:03;;;;;;;;;22.50;18.75;;;;;;;;5071234;28;46343;-68
2022/01/13 09:29:29;;;;;;;;;19.00;16.00;;;;;;;;5071082;28;45297;-70
2022/01/13 09:31:54;;;;;;;;;22.50;20.25;;;;;;;;5071703;27;45254;-69
2022/01/13 09:34:19;;;;;;;;;25.00;19.50;;;;;;;;5070449;27;45209;-69
2022/01/13 09:36:45;;;;;;;;;20.50;16.50;;;;;;;;5071928;28;45568;-69
2022/01/13 09:39:10;;;;;;;;;23.25;20.50;;;;;;;;5070567;27;45313;-70
2022/01/13 09:41:36;;;;;;;;;17.50;16.25;;;;;;;;5072798;28;45423;-71
2022/01/13 09:44:04;;;;;;;;;19.75;17.75;;;;;;;;5073316;28;45369;-70
2022/01/13 09:46:30;;;;;;;;;20.75;19.75;;;;;;;;5074351;28;47077;-70
2022/01/13 09:48:55;;;;;;;;;21.75;18.50;;;;;;;;5075656;27;45360;-70
2022/01/13 09:51:24;;;;;;;;;21.50;17.25;;;;;;;;5072470;27;45426;-69
2022/01/13 09:53:50;;;;;;;;;20.25;17.00;;;;;;;;5072204;28;45332;-70
2022/01/13 09:56:15;;;;;;;;;24.25;21.75;;;;;;;;5056675;28;47422;-69
2022/01/13 09:58:43;;;;;;;;;26.75;18.75;;;;;;;;5073693;28;45372;-69
2022/01/13 10:01:09;;;;;;;;;21.75;16.50;;;;;;;;5075916;27;45476;-70
2022/01/13 10:03:34;;;;;;;;;18.00;16.00;;;;;;;;5074886;27;45406;-70
2022/01/13 10:06:00;;;;;;;;;22.00;19.50;;;;;;;;5074305;27;45593;-70
2022/01/13 10:08:42;;;;;;;;;33.50;30.75;;;;;;;;5074088;27;45800;-70
2022/01/13 10:11:25;;;;;;;;;20.00;15.00;;;;;;;;5074141;27;45395;-69
2022/01/13 10:16:22;;;;;;;;;19.25;19.00;;;;;;;;5060830;28;45409;-69
2022/01/13 10:17:02;;;;;;;;;20.50;16.50;;;;;;;;5062401;28;46227;-71
2022/01/13 10:19:35;;;;;;;;;20.00;18.75;;;;;;;;5073883;27;47654;-70
2022/01/13 10:22:06;;;;;;;;;14.25;14.00;;;;;;;;5071720;28;45295;-69
2022/01/13 10:24:32;;;;;;;;;19.50;18.25;;;;;;;;5072545;27;45523;-69
2022/01/13 10:27:02;;;;;;;;;21.00;18.25;;;;;;;;5073426;27;46370;-70
2022/01/13 10:29:47;;;;;;;;;21.50;20.00;;;;;;;;5071718;28;45392;-71
2022/01/13 10:32:18;;;;;;;;;23.75;21.25;;;;;;;;5072518;28;45463;-70
2022/01/13 10:34:45;;;;;;;;;19.50;17.25;;;;;;;;5074090;28;45600;-70
2022/01/13 10:37:20;;;;;;;;;17.50;14.25;;;;;;;;5074757;28;45298;-71
2022/01/13 10:39:51;;;;;;;;;19.00;13.50;;;;;;;;5073543;27;45548;-70
2022/01/13 10:45:01;;;;;;;;;23.25;20.25;;;;;;;;5072901;27;45431;-69
2022/01/13 10:47:27;;;;;;;;;20.00;15.75;;;;;;;;5073259;27;46058;-70
2022/01/13 10:49:52;;;;;;;;;29.75;23.50;;;;;;;;5073513;27;45518;-70
2022/01/13 10:52:24;;;;;;;;;26.25;22.25;;;;;;;;5073142;27;45404;-70
2022/01/13 10:54:55;;;;;;;;;25.25;20.50;;;;;;;;5075033;27;45386;-70
2022/01/13 10:57:22;;;;;;;;;27.75;21.75;;;;;;;;5073387;27;45419;-69
2022/01/13 10:59:47;;;;;;;;;33.75;29.25;;;;;;;;5073346;27;45282;-70
2022/01/13 11:02:12;;;;;;;;;21.50;18.75;;;;;;;;5073848;27;45409;-69
2022/01/13 11:04:38;;;;;;;;;23.00;21.75;;;;;;;;5073727;27;45310;-70
2022/01/13 11:07:13;;;;;;;;;22.75;21.25;;;;;;;;5075253;27;45446;-70
2022/01/13 11:09:45;;;;;;;;;20.00;18.25;;;;;;;;5074457;28;45490;-70
2022/01/13 11:12:11;;;;;;;;;29.25;22.75;;;;;;;;5071534;28;45695;-71
2022/01/13 11:14:42;;;;;;;;;26.00;23.25;;;;;;;;5073923;27;45316;-71
2022/01/13 11:17:08;;;;;;;;;19.75;18.00;;;;;;;;5072909;27;46182;-69
2022/01/13 11:19:33;;;;;;;;;21.75;17.25;;;;;;;;5057160;28;45724;-69
2022/01/13 11:21:59;;;;;;;;;22.75;15.50;;;;;;;;5070284;28;45438;-70
2022/01/13 11:24:24;;;;;;;;;23.25;22.00;;;;;;;;5078563;27;45784;-69
2022/01/13 11:26:50;;;;;;;;;16.50;15.50;;;;;;;;5063555;28;45569;-69
2022/01/13 11:29:17;;;;;;;;;24.00;20.50;;;;;;;;5071617;27;45320;-70
2022/01/13 11:31:42;;;;;;;;;26.00;19.75;;;;;;;;5057543;28;45297;-70
2022/01/13 11:34:08;;;;;;;;;23.25;18.75;;;;;;;;5069722;27;45441;-70
2022/01/13 11:36:34;;;;;;;;;23.75;21.75;;;;;;;;5069297;27;45633;-71
2022/01/13 11:39:06;;;;;;;;;32.00;24.00;;;;;;;;5067939;27;45540;-70
2022/01/13 11:41:31;;;;;;;;;29.00;24.75;;;;;;;;5067924;28;45512;-70
2022/01/13 11:44:17;;;;;;;;;32.75;27.50;;;;;;;;5056589;28;45423;-71
2022/01/13 11:46:46;;;;;;;;;29.25;25.00;;;;;;;;5056567;28;46563;-72
2022/01/13 11:49:18;;;;;;;;;27.00;22.25;;;;;;;;5051982;28;45618;-71
2022/01/13 11:51:43;;;;;;;;;26.00;22.00;;;;;;;;5057881;28;45396;-70
2022/01/13 11:54:09;;;;;;;;;36.50;29.25;;;;;;;;5066212;27;45527;-69
2022/01/13 11:56:34;;;;;;;;;33.50;29.50;;;;;;;;5067977;27;47410;-69
2022/01/13 11:59:00;;;;;;;;;31.75;25.00;;;;;;;;5051213;28;45426;-69
2022/01/13 12:01:32;;;;;;;;;32.50;29.75;;;;;;;;5072269;27;45681;-70
2022/01/13 12:04:05;;;;;;;;;54.75;42.75;;;;;;;;5068655;28;45709;-69
2022/01/13 12:06:32;;;;;;;;;43.25;32.25;;;;;;;;5069895;27;45372;-68
2022/01/13 12:08:58;;;;;;;;;34.25;32.75;;;;;;;;5068205;28;45551;-68
2022/01/13 12:11:34;;;;;;;;;38.00;30.75;;;;;;;;5068576;28;45533;-69
2022/01/13 12:13:59;;;;;;;;;31.00;23.00;;;;;;;;5069558;27;45413;-69
2022/01/13 12:16:43;;;;;;;;;29.75;28.75;;;;;;;;5069230;28;46179;-70
2022/01/13 12:19:13;;;;;;;;;43.25;29.00;;;;;;;;5057834;28;45313;-71
2022/01/13 12:21:43;;;;;;;;;33.75;29.75;;;;;;;;5067810;27;45385;-70
2022/01/13 12:24:09;;;;;;;;;37.00;27.75;;;;;;;;5071654;28;45346;-70
2022/01/13 12:26:34;;;;;;;;;35.00;28.25;;;;;;;;5067363;28;47679;-70
2022/01/13 12:29:23;;;;;;;;;30.00;26.75;;;;;;;;5068926;27;45237;-72
2022/01/13 12:32:02;;;;;;;;;42.50;35.00;;;;;;;;5058006;27;45510;-71
2022/01/13 12:34:27;;;;;;;;;34.25;29.50;;;;;;;;5060640;28;45219;-70
2022/01/13 12:36:52;;;;;;;;;34.50;28.50;;;;;;;;5057759;28;46607;-70
2022/01/13 12:39:18;;;;;;;;;29.25;23.00;;;;;;;;5060428;28;45276;-71
2022/01/13 12:41:59;;;;;;;;;36.75;31.25;;;;;;;;5061290;27;45306;-70
2022/01/13 12:47:09;;;;;;;;;31.00;26.50;;;;;;;;5070327;28;45779;-70
2022/01/13 12:49:35;;;;;;;;;36.00;30.25;;;;;;;;5070781;28;45598;-70
2022/01/13 12:52:00;;;;;;;;;33.75;27.00;;;;;;;;5057202;27;45366;-72
2022/01/13 12:54:25;;;;;;;;;36.00;30.50;;;;;;;;5059960;28;45726;-70
2022/01/13 12:56:51;;;;;;;;;27.00;24.00;;;;;;;;5061824;27;45583;-70
2022/01/13 12:59:16;;;;;;;;;33.00;26.00;;;;;;;;5065892;28;45506;-71
2022/01/13 13:01:41;;;;;;;;;33.00;25.25;;;;;;;;5072141;27;45303;-72
2022/01/13 13:04:08;;;;;;;;;32.50;26.75;;;;;;;;5057964;28;45425;-71
2022/01/13 13:06:35;;;;;;;;;27.25;24.75;;;;;;;;5060864;28;45313;-74
2022/01/13 13:09:11;;;;;;;;;25.75;21.50;;;;;;;;5067880;28;45303;-74
2022/01/13 13:11:41;;;;;;;;;29.75;26.50;;;;;;;;5069275;27;45442;-73
2022/01/13 13:14:15;;;;;;;;;21.25;20.25;;;;;;;;5066594;27;45466;-73
2022/01/13 13:16:44;;;;;;;;;29.00;28.25;;;;;;;;5055278;27;47011;-74
2022/01/13 13:19:10;;;;;;;;;20.75;18.25;;;;;;;;5075552;27;45497;-73
2022/01/13 13:21:35;;;;;;;;;22.25;21.75;;;;;;;;5073637;27;45666;-74
2022/01/13 13:24:00;;;;;;;;;26.00;22.75;;;;;;;;5073674;28;45277;-76
2022/01/13 13:26:25;;;;;;;;;23.25;18.75;;;;;;;;5074116;28;46627;-75
2022/01/13 13:28:52;;;;;;;;;32.00;28.50;;;;;;;;5074206;27;45341;-73
2022/01/13 13:31:19;;;;;;;;;47.50;38.75;;;;;;;;5074479;28;45389;-73
2022/01/13 13:33:46;;;;;;;;;28.25;22.75;;;;;;;;5073594;27;45407;-74
2022/01/13 13:36:22;;;;;;;;;25.50;22.75;;;;;;;;5073644;27;46404;-73
2022/01/13 13:38:48;;;;;;;;;29.25;25.00;;;;;;;;5068357;27;45341;-74
2022/01/13 13:41:15;;;;;;;;;30.25;25.75;;;;;;;;5074384;28;45506;-73
2022/01/13 13:43:40;;;;;;;;;34.25;31.50;;;;;;;;5074011;28;45557;-74
2022/01/13 13:46:05;;;;;;;;;28.50;23.25;;;;;;;;5075981;27;45388;-74
2022/01/13 13:48:30;;;;;;;;;28.50;26.25;;;;;;;;5072901;28;45414;-73
2022/01/13 13:50:56;;;;;;;;;25.75;22.75;;;;;;;;5072824;27;45352;-73
2022/01/13 13:53:22;;;;;;;;;27.00;23.00;;;;;;;;5073969;27;45519;-73
2022/01/13 13:56:01;;;;;;;;;27.75;25.75;;;;;;;;5073293;28;47196;-73
2022/01/13 13:58:27;;;;;;;;;36.75;32.00;;;;;;;;5074482;28;45526;-74
2022/01/13 14:00:57;;;;;;;;;25.00;24.25;;;;;;;;5075642;27;45305;-74
2022/01/13 14:03:35;;;;;;;;;36.25;28.00;;;;;;;;5072278;28;45511;-74
2022/01/13 14:06:00;;;;;;;;;29.00;26.00;;;;;;;;5072409;27;46486;-75
2022/01/13 14:08:27;;;;;;;;;29.75;24.00;;;;;;;;5073455;28;45386;-75
2022/01/13 14:11:05;;;;;;;;;29.50;24.50;;;;;;;;5073659;28;45469;-75
2022/01/13 14:13:30;;;;;;;;;25.25;22.75;;;;;;;;5074641;27;45513;-74
2022/01/13 14:15:55;;;;;;;;;23.75;23.75;;;;;;;;5075166;27;45645;-74
2022/01/13 14:18:21;;;;;;;;;31.50;24.50;;;;;;;;5071646;28;46295;-74
2022/01/13 14:20:49;;;;;;;;;22.00;22.00;;;;;;;;5072667;27;45403;-75
2022/01/13 14:23:17;;;;;;;;;37.25;26.00;;;;;;;;5072287;28;45689;-75
2022/01/13 14:25:43;;;;;;;;;27.50;26.50;;;;;;;;5073478;28;45509;-75
2022/01/13 14:28:19;;;;;;;;;28.50;25.25;;;;;;;;5074432;28;45375;-74
2022/01/13 14:30:46;;;;;;;;;26.00;23.75;;;;;;;;5072814;27;45380;-74
2022/01/13 14:33:14;;;;;;;;;24.50;23.50;;;;;;;;5069942;27;45537;-74
2022/01/13 14:35:40;;;;;;;;;31.25;29.75;;;;;;;;5071878;27;46509;-74
2022/01/13 14:38:12;;;;;;;;;24.50;22.25;;;;;;;;5055633;28;45872;-75
2022/01/13 14:40:41;;;;;;;;;22.50;21.25;;;;;;;;5068403;28;45349;-74
2022/01/13 14:43:07;;;;;;;;;23.75;22.25;;;;;;;;5075073;27;45272;-74